sensor_id;sensor_type;location;lat;lon;timestamp;pressure;altitude;pressure_sealevel;temperature;humidity
59789;BME280;47353;51.614;5.530;2023-02-22T00:00:22;101482.88;;;5.50;100.00
59789;BME280;47353;51.614;5.530;2023-02-22T00:02:53;101480.81;;;5.46;100.00
59789;BME280;47353;51.614;5.530;2023-02-22T00:05:25;101490.19;;;5.38;100.00
59789;BME280;47353;51.614;5.530;2023-02-22T00:07:51;101481.31;;;5.36;100.00
59789;BME280;47353;51.614;5.530;2023-02-22T00:10:17;101489.94;;;5.40;100.00
59789;BME280;47353;51.614;5.530;2023-02-22T00:12:50;101490.78;;;5.40;100.00
59789;BME280;47353;51.614;5.530;2023-02-22T00:15:19;101495.50;;;5.33;100.00
59789;BME280;47353;51.614;5.530;2023-02-22T00:17:45;101481.63;;;5.46;100.00
59789;BME280;47353;51.614;5.530;2023-02-22T00:20:12;101482.88;;;5.50;100.00
59789;BME280;47353;51.614;5.530;2023-02-22T00:22:45;101484.28;;;5.35;100.00
59789;BME280;47353;51.614;5.530;2023-02-22T00:25:12;101492.53;;;5.35;100.00
59789;BME280;47353;51.614;5.530;2023-02-22T00:27:38;101493.28;;;5.24;100.00
59789;BME280;47353;51.614;5.530;2023-02-22T00:30:04;101474.56;;;5.14;100.00
59789;BME280;47353;51.614;5.530;2023-02-22T00:32:30;101490.75;;;5.22;100.00
59789;BME280;47353;51.614;5.530;2023-02-22T00:34:56;101477.25;;;5.21;100.00
59789;BME280;47353;51.614;5.530;2023-02-22T00:37:22;101488.25;;;5.21;100.00
59789;BME280;47353;51.614;5.530;2023-02-22T00:39:48;101486.41;;;5.14;100.00
59789;BME280;47353;51.614;5.530;2023-02-22T00:42:15;101477.78;;;5.11;100.00
59789;BME280;47353;51.614;5.530;2023-02-22T00:44:40;101485.25;;;5.22;100.00
59789;BME280;47353;51.614;5.530;2023-02-22T00:47:06;101481.38;;;5.11;100.00
59789;BME280;47353;51.614;5.530;2023-02-22T00:49:32;101474.19;;;5.10;100.00
59789;BME280;47353;51.614;5.530;2023-02-22T00:51:59;101466.03;;;5.04;100.00
59789;BME280;47353;51.614;5.530;2023-02-22T00:54:24;101476.63;;;5.00;100.00
59789;BME280;47353;51.614;5.530;2023-02-22T00:56:50;101472.19;;;4.99;100.00
59789;BME280;47353;51.614;5.530;2023-02-22T00:59:15;101472.50;;;5.09;100.00
59789;BME280;47353;51.614;5.530;2023-02-22T01:01:41;101470.50;;;4.98;100.00
59789;BME280;47353;51.614;5.530;2023-02-22T01:04:08;101464.94;;;4.87;100.00
59789;BME280;47353;51.614;5.530;2023-02-22T01:06:33;101473.97;;;4.87;100.00
59789;BME280;47353;51.614;5.530;2023-02-22T01:08:59;101470.88;;;4.84;100.00
59789;BME280;47353;51.614;5.530;2023-02-22T01:11:26;101462.06;;;4.75;100.00
59789;BME280;47353;51.614;5.530;2023-02-22T01:13:52;101462.91;;;4.76;100.00
59789;BME280;47353;51.614;5.530;2023-02-22T01:16:21;101465.81;;;4.81;100.00
59789;BME280;47353;51.614;5.530;2023-02-22T01:18:47;101459.03;;;4.83;100.00
59789;BME280;47353;51.614;5.530;2023-02-22T01:21:12;101460.56;;;4.79;100.00
59789;BME280;47353;51.614;5.530;2023-02-22T01:23:38;101454.78;;;4.87;100.00
59789;BME280;47353;51.614;5.530;2023-02-22T01:26:04;101441.59;;;4.78;100.00
59789;BME280;47353;51.614;5.530;2023-02-22T01:28:33;101447.75;;;4.73;100.00
59789;BME280;47353;51.614;5.530;2023-02-22T01:30:58;101439.13;;;4.70;100.00
59789;BME280;47353;51.614;5.530;2023-02-22T01:33:25;101439.34;;;4.68;100.00
59789;BME280;47353;51.614;5.530;2023-02-22T01:35:51;101447.81;;;4.67;100.00
59789;BME280;47353;51.614;5.530;2023-02-22T01:38:16;101442.69;;;4.70;100.00
59789;BME280;47353;51.614;5.530;2023-02-22T01:40:47;101441.16;;;4.81;100.00
59789;BME280;47353;51.614;5.530;2023-02-22T01:43:18;101439.94;;;4.70;100.00
59789;BME280;47353;51.614;5.530;2023-02-22T01:46:03;101432.16;;;4.67;100.00
59789;BME280;47353;51.614;5.530;2023-02-22T01:48:37;101433.75;;;4.57;100.00
59789;BME280;47353;51.614;5.530;2023-02-22T01:51:31;101427.53;;;4.68;100.00
59789;BME280;47353;51.614;5.530;2023-02-22T01:54:15;101429.56;;;4.79;100.00
59789;BME280;47353;51.614;5.530;2023-02-22T01:57:02;101432.75;;;4.76;100.00
59789;BME280;47353;51.614;5.530;2023-02-22T01:59:33;101429.66;;;4.66;100.00
59789;BME280;47353;51.614;5.530;2023-02-22T02:02:00;101424.63;;;4.63;100.00
59789;BME280;47353;51.614;5.530;2023-02-22T02:04:26;101419.59;;;4.60;100.00
59789;BME280;47353;51.614;5.530;2023-02-22T02:06:53;101420.84;;;4.64;100.00
59789;BME280;47353;51.614;5.530;2023-02-22T02:09:29;101413.06;;;4.61;100.00
59789;BME280;47353;51.614;5.530;2023-02-22T02:11:59;101412.88;;;4.56;100.00
59789;BME280;47353;51.614;5.530;2023-02-22T02:14:27;101406.16;;;4.52;100.00
59789;BME280;47353;51.614;5.530;2023-02-22T02:16:52;101402.19;;;4.48;100.00
59789;BME280;47353;51.614;5.530;2023-02-22T02:25:15;101393.41;;;4.64;100.00
59789;BME280;47353;51.614;5.530;2023-02-22T02:33:32;101389.59;;;4.65;100.00
59789;BME280;47353;51.614;5.530;2023-02-22T02:36:09;101375.91;;;4.65;100.00
59789;BME280;47353;51.614;5.530;2023-02-22T02:41:26;101369.72;;;4.69;100.00
59789;BME280;47353;51.614;5.530;2023-02-22T02:44:07;101376.75;;;4.65;100.00
59789;BME280;47353;51.614;5.530;2023-02-22T02:46:53;101367.78;;;4.76;100.00
59789;BME280;47353;51.614;5.530;2023-02-22T02:49:29;101362.94;;;4.72;100.00
59789;BME280;47353;51.614;5.530;2023-02-22T02:51:59;101365.78;;;4.65;100.00
59789;BME280;47353;51.614;5.530;2023-02-22T02:54:25;101354.75;;;4.47;100.00
59789;BME280;47353;51.614;5.530;2023-02-22T02:56:51;101360.31;;;4.41;100.00
59789;BME280;47353;51.614;5.530;2023-02-22T03:04:40;101370.19;;;4.42;100.00
59789;BME280;47353;51.614;5.530;2023-02-22T03:10:09;101365.66;;;4.54;100.00
59789;BME280;47353;51.614;5.530;2023-02-22T03:12:46;101361.13;;;4.41;100.00
59789;BME280;47353;51.614;5.530;2023-02-22T03:15:34;101367.38;;;4.55;100.00
59789;BME280;47353;51.614;5.530;2023-02-22T03:24:02;101344.81;;;4.53;100.00
59789;BME280;47353;51.614;5.530;2023-02-22T03:26:39;101340.09;;;4.60;100.00
59789;BME280;47353;51.614;5.530;2023-02-22T03:29:07;101351.13;;;4.53;100.00
59789;BME280;47353;51.614;5.530;2023-02-22T03:31:40;101340.09;;;4.60;100.00
59789;BME280;47353;51.614;5.530;2023-02-22T03:34:12;101335.78;;;4.46;100.00
59789;BME280;47353;51.614;5.530;2023-02-22T03:36:44;101329.03;;;4.48;100.00
59789;BME280;47353;51.614;5.530;2023-02-22T03:39:14;101332.59;;;4.49;100.00
59789;BME280;47353;51.614;5.530;2023-02-22T03:41:42;101337.03;;;4.50;100.00
59789;BME280;47353;51.614;5.530;2023-02-22T03:44:15;101328.13;;;4.54;100.00
59789;BME280;47353;51.614;5.530;2023-02-22T03:46:43;101328.13;;;4.54;100.00
59789;BME280;47353;51.614;5.530;2023-02-22T03:49:12;101322.94;;;4.46;100.00
59789;BME280;47353;51.614;5.530;2023-02-22T03:51:39;101315.63;;;4.40;100.00
59789;BME280;47353;51.614;5.530;2023-02-22T03:54:05;101310.81;;;4.36;100.00
59789;BME280;47353;51.614;5.530;2023-02-22T03:56:38;101316.97;;;4.31;100.00
59789;BME280;47353;51.614;5.530;2023-02-22T03:59:11;101321.06;;;4.22;100.00
59789;BME280;47353;51.614;5.530;2023-02-22T04:01:37;101302.34;;;4.19;100.00
59789;BME280;47353;51.614;5.530;2023-02-22T04:04:03;101319.09;;;4.29;100.00
59789;BME280;47353;51.614;5.530;2023-02-22T04:06:28;101308.19;;;4.23;100.00
59789;BME280;47353;51.614;5.530;2023-02-22T04:08:54;101305.66;;;4.21;100.00
59789;BME280;47353;51.614;5.530;2023-02-22T04:11:20;101277.16;;;4.04;100.00
59789;BME280;47353;51.614;5.530;2023-02-22T04:13:45;101291.66;;;4.11;100.00
59789;BME280;47353;51.614;5.530;2023-02-22T04:16:11;101300.91;;;4.10;100.00
59789;BME280;47353;51.614;5.530;2023-02-22T04:18:36;101285.53;;;4.09;100.00
59789;BME280;47353;51.614;5.530;2023-02-22T04:21:02;101298.78;;;4.12;100.00
59789;BME280;47353;51.614;5.530;2023-02-22T04:23:28;101283.88;;;4.08;100.00
59789;BME280;47353;51.614;5.530;2023-02-22T04:25:53;101265.97;;;4.06;100.00
59789;BME280;47353;51.614;5.530;2023-02-22T04:28:19;101263.81;;;4.14;100.00
59789;BME280;47353;51.614;5.530;2023-02-22T04:30:44;101271.56;;;4.17;100.00
59789;BME280;47353;51.614;5.530;2023-02-22T04:33:10;101261.25;;;4.19;100.00
59789;BME280;47353;51.614;5.530;2023-02-22T04:35:36;101263.97;;;4.19;100.00
59789;BME280;47353;51.614;5.530;2023-02-22T04:38:02;101258.94;;;4.16;100.00
59789;BME280;47353;51.614;5.530;2023-02-22T04:40:28;101265.38;;;4.28;100.00
59789;BME280;47353;51.614;5.530;2023-02-22T04:42:54;101253.69;;;4.15;100.00
59789;BME280;47353;51.614;5.530;2023-02-22T04:45:19;101253.06;;;4.13;100.00
59789;BME280;47353;51.614;5.530;2023-02-22T04:47:45;101254.97;;;4.12;100.00
59789;BME280;47353;51.614;5.530;2023-02-22T04:50:11;101256.72;;;4.07;100.00
59789;BME280;47353;51.614;5.530;2023-02-22T04:52:37;101257.03;;;4.17;100.00
59789;BME280;47353;51.614;5.530;2023-02-22T04:55:02;101263.19;;;4.12;100.00
59789;BME280;47353;51.614;5.530;2023-02-22T04:57:29;101256.44;;;4.15;100.00
59789;BME280;47353;51.614;5.530;2023-02-22T04:59:54;101253.47;;;4.16;100.00
59789;BME280;47353;51.614;5.530;2023-02-22T05:02:20;101250.56;;;4.11;100.00
59789;BME280;47353;51.614;5.530;2023-02-22T05:04:46;101259.63;;;4.12;100.00
59789;BME280;47353;51.614;5.530;2023-02-22T05:07:11;101255.59;;;4.14;100.00
59789;BME280;47353;51.614;5.530;2023-02-22T05:09:37;101249.50;;;4.12;100.00
59789;BME280;47353;51.614;5.530;2023-02-22T05:12:02;101254.75;;;4.14;100.00
59789;BME280;47353;51.614;5.530;2023-02-22T05:14:28;101252.84;;;4.14;100.00
59789;BME280;47353;51.614;5.530;2023-02-22T05:16:55;101248.06;;;4.10;100.00
59789;BME280;47353;51.614;5.530;2023-02-22T05:19:21;101246.34;;;4.09;100.00
59789;BME280;47353;51.614;5.530;2023-02-22T05:21:46;101244.22;;;4.11;100.00
59789;BME280;47353;51.614;5.530;2023-02-22T05:24:12;101245.72;;;4.13;100.00
59789;BME280;47353;51.614;5.530;2023-02-22T05:26:37;101244.00;;;4.12;100.00
59789;BME280;47353;51.614;5.530;2023-02-22T05:29:02;101237.09;;;4.10;100.00
59789;BME280;47353;51.614;5.530;2023-02-22T05:31:28;101240.66;;;4.10;100.00
59789;BME280;47353;51.614;5.530;2023-02-22T05:33:53;101229.28;;;4.13;100.00
59789;BME280;47353;51.614;5.530;2023-02-22T05:36:18;101228.66;;;4.11;100.00
59789;BME280;47353;51.614;5.530;2023-02-22T05:38:44;101224.03;;;4.12;100.00
59789;BME280;47353;51.614;5.530;2023-02-22T05:41:10;101226.91;;;4.17;100.00
59789;BME280;47353;51.614;5.530;2023-02-22T05:43:37;101221.06;;;4.13;100.00
59789;BME280;47353;51.614;5.530;2023-02-22T05:46:02;101219.97;;;4.14;100.00
59789;BME280;47353;51.614;5.530;2023-02-22T05:48:28;101218.69;;;4.17;100.00
59789;BME280;47353;51.614;5.530;2023-02-22T05:50:53;101196.41;;;4.13;100.00
59789;BME280;47353;51.614;5.530;2023-02-22T05:53:20;101216.94;;;4.22;100.00
59789;BME280;47353;51.614;5.530;2023-02-22T05:55:45;101201.50;;;4.28;100.00
59789;BME280;47353;51.614;5.530;2023-02-22T05:58:10;101197.72;;;4.47;100.00
59789;BME280;47353;51.614;5.530;2023-02-22T06:00:36;101199.66;;;4.40;100.00
59789;BME280;47353;51.614;5.530;2023-02-22T06:03:06;101195.66;;;4.42;100.00
59789;BME280;47353;51.614;5.530;2023-02-22T06:05:32;101192.53;;;4.39;100.00
59789;BME280;47353;51.614;5.530;2023-02-22T06:07:58;101199.16;;;4.31;100.00
59789;BME280;47353;51.614;5.530;2023-02-22T06:10:24;101186.13;;;4.27;100.00
59789;BME280;47353;51.614;5.530;2023-02-22T06:12:50;101184.13;;;4.34;100.00
59789;BME280;47353;51.614;5.530;2023-02-22T06:15:17;101192.28;;;4.40;100.00
59789;BME280;47353;51.614;5.530;2023-02-22T06:17:43;101182.63;;;4.38;100.00
59789;BME280;47353;51.614;5.530;2023-02-22T06:20:10;101178.75;;;4.45;100.00
59789;BME280;47353;51.614;5.530;2023-02-22T06:22:36;101166.19;;;4.38;100.00
59789;BME280;47353;51.614;5.530;2023-02-22T06:25:03;101162.16;;;4.40;100.00
59789;BME280;47353;51.614;5.530;2023-02-22T06:27:32;101162.59;;;4.55;100.00
59789;BME280;47353;51.614;5.530;2023-02-22T06:29:59;101161.00;;;4.48;100.00
59789;BME280;47353;51.614;5.530;2023-02-22T06:32:24;101159.09;;;4.48;100.00
59789;BME280;47353;51.614;5.530;2023-02-22T06:34:50;101154.66;;;4.47;100.00
59789;BME280;47353;51.614;5.530;2023-02-22T06:37:15;101155.66;;;4.71;100.00
59789;BME280;47353;51.614;5.530;2023-02-22T06:39:40;101154.75;;;4.59;100.00
59789;BME280;47353;51.614;5.530;2023-02-22T06:42:06;101152.41;;;4.62;100.00
59789;BME280;47353;51.614;5.530;2023-02-22T06:44:31;101144.53;;;4.66;100.00
59789;BME280;47353;51.614;5.530;2023-02-22T06:46:57;101146.28;;;4.60;100.00
59789;BME280;47353;51.614;5.530;2023-02-22T06:49:24;101155.53;;;4.48;100.00
59789;BME280;47353;51.614;5.530;2023-02-22T06:51:51;101158.47;;;4.64;100.00
59789;BME280;47353;51.614;5.530;2023-02-22T06:54:16;101155.13;;;4.62;100.00
59789;BME280;47353;51.614;5.530;2023-02-22T06:56:44;101147.19;;;4.72;100.00
59789;BME280;47353;51.614;5.530;2023-02-22T06:59:09;101157.88;;;4.62;100.00
59789;BME280;47353;51.614;5.530;2023-02-22T07:01:35;101153.59;;;4.66;100.00
59789;BME280;47353;51.614;5.530;2023-02-22T07:04:00;101154.09;;;4.93;100.00
59789;BME280;47353;51.614;5.530;2023-02-22T07:06:26;101159.78;;;4.62;100.00
59789;BME280;47353;51.614;5.530;2023-02-22T07:08:51;101169.84;;;4.50;100.00
59789;BME280;47353;51.614;5.530;2023-02-22T07:11:17;101166.63;;;4.53;100.00
59789;BME280;47353;51.614;5.530;2023-02-22T07:13:42;101170.66;;;4.50;100.00
59789;BME280;47353;51.614;5.530;2023-02-22T07:16:08;101181.72;;;4.62;100.00
59789;BME280;47353;51.614;5.530;2023-02-22T07:18:33;101175.72;;;4.53;100.00
59789;BME280;47353;51.614;5.530;2023-02-22T07:20:59;101173.41;;;4.50;100.00
59789;BME280;47353;51.614;5.530;2023-02-22T07:23:24;101165.50;;;4.60;100.00
59789;BME280;47353;51.614;5.530;2023-02-22T07:25:49;101170.66;;;4.68;100.00
59789;BME280;47353;51.614;5.530;2023-02-22T07:28:15;101173.25;;;4.63;100.00
59789;BME280;47353;51.614;5.530;2023-02-22T07:30:41;101178.88;;;4.68;100.00
59789;BME280;47353;51.614;5.530;2023-02-22T07:33:08;101175.38;;;4.61;100.00
59789;BME280;47353;51.614;5.530;2023-02-22T07:35:43;101180.41;;;4.64;100.00
59789;BME280;47353;51.614;5.530;2023-02-22T07:38:11;101189.53;;;4.76;100.00
59789;BME280;47353;51.614;5.530;2023-02-22T07:40:38;101184.56;;;4.85;100.00
59789;BME280;47353;51.614;5.530;2023-02-22T07:45:39;101180.66;;;4.92;100.00
59789;BME280;47353;51.614;5.530;2023-02-22T07:48:05;101169.06;;;4.90;100.00
59789;BME280;47353;51.614;5.530;2023-02-22T07:50:32;101186.63;;;4.89;100.00
59789;BME280;47353;51.614;5.530;2023-02-22T07:52:59;101190.28;;;4.83;100.00
59789;BME280;47353;51.614;5.530;2023-02-22T07:55:27;101197.31;;;4.79;100.00
59789;BME280;47353;51.614;5.530;2023-02-22T07:57:56;101208.16;;;4.86;100.00
59789;BME280;47353;51.614;5.530;2023-02-22T08:00:33;101199.84;;;4.92;100.00
59789;BME280;47353;51.614;5.530;2023-02-22T08:03:00;101193.69;;;4.97;100.00
59789;BME280;47353;51.614;5.530;2023-02-22T08:05:27;101203.72;;;5.03;100.00
59789;BME280;47353;51.614;5.530;2023-02-22T08:07:53;101187.19;;;5.09;100.00
59789;BME280;47353;51.614;5.530;2023-02-22T08:10:21;101185.75;;;5.07;100.00
59789;BME280;47353;51.614;5.530;2023-02-22T08:12:47;101196.47;;;5.08;100.00
59789;BME280;47353;51.614;5.530;2023-02-22T08:15:19;101198.91;;;5.17;100.00
59789;BME280;47353;51.614;5.530;2023-02-22T08:17:46;101192.91;;;5.08;100.00
59789;BME280;47353;51.614;5.530;2023-02-22T08:20:11;101209.88;;;5.17;100.00
59789;BME280;47353;51.614;5.530;2023-02-22T08:22:38;101202.69;;;5.15;100.00
59789;BME280;47353;51.614;5.530;2023-02-22T08:25:04;101188.16;;;5.15;100.00
59789;BME280;47353;51.614;5.530;2023-02-22T08:27:30;101184.59;;;5.26;100.00
59789;BME280;47353;51.614;5.530;2023-02-22T08:29:58;101172.25;;;5.35;100.00
59789;BME280;47353;51.614;5.530;2023-02-22T08:32:23;101172.88;;;5.49;100.00
59789;BME280;47353;51.614;5.530;2023-02-22T08:34:49;101166.44;;;5.55;100.00
59789;BME280;47353;51.614;5.530;2023-02-22T08:37:15;101165.72;;;5.59;100.00
59789;BME280;47353;51.614;5.530;2023-02-22T08:39:41;101156.41;;;5.60;100.00
59789;BME280;47353;51.614;5.530;2023-02-22T08:42:07;101162.38;;;5.69;100.00
59789;BME280;47353;51.614;5.530;2023-02-22T08:44:36;101160.03;;;5.84;100.00
59789;BME280;47353;51.614;5.530;2023-02-22T08:47:02;101175.09;;;5.93;100.00
59789;BME280;47353;51.614;5.530;2023-02-22T08:49:27;101176.66;;;6.12;100.00
59789;BME280;47353;51.614;5.530;2023-02-22T08:51:53;101170.44;;;6.16;100.00
59789;BME280;47353;51.614;5.530;2023-02-22T08:54:18;101181.75;;;6.31;100.00
59789;BME280;47353;51.614;5.530;2023-02-22T08:56:44;101177.81;;;6.50;100.00
59789;BME280;47353;51.614;5.530;2023-02-22T08:59:09;101168.69;;;6.61;100.00
59789;BME280;47353;51.614;5.530;2023-02-22T09:01:35;101155.88;;;6.55;100.00
59789;BME280;47353;51.614;5.530;2023-02-22T09:04:01;101170.53;;;6.72;100.00
59789;BME280;47353;51.614;5.530;2023-02-22T09:06:27;101161.25;;;6.73;100.00
59789;BME280;47353;51.614;5.530;2023-02-22T09:08:53;101160.31;;;6.56;100.00
59789;BME280;47353;51.614;5.530;2023-02-22T09:11:18;101157.28;;;6.69;100.00
59789;BME280;47353;51.614;5.530;2023-02-22T09:13:44;101154.28;;;6.71;100.00
59789;BME280;47353;51.614;5.530;2023-02-22T09:16:09;101166.97;;;6.72;100.00
59789;BME280;47353;51.614;5.530;2023-02-22T09:18:34;101165.28;;;6.82;100.00
59789;BME280;47353;51.614;5.530;2023-02-22T09:21:01;101154.63;;;6.86;100.00
59789;BME280;47353;51.614;5.530;2023-02-22T09:23:27;101149.91;;;6.98;100.00
59789;BME280;47353;51.614;5.530;2023-02-22T09:25:52;101148.84;;;7.16;100.00
59789;BME280;47353;51.614;5.530;2023-02-22T09:28:17;101152.72;;;7.31;100.00
59789;BME280;47353;51.614;5.530;2023-02-22T09:30:43;101150.31;;;7.51;100.00
59789;BME280;47353;51.614;5.530;2023-02-22T09:33:11;101144.63;;;7.41;100.00
59789;BME280;47353;51.614;5.530;2023-02-22T09:35:38;101152.91;;;7.41;100.00
59789;BME280;47353;51.614;5.530;2023-02-22T09:38:07;101136.72;;;7.45;100.00
59789;BME280;47353;51.614;5.530;2023-02-22T09:40:36;101142.53;;;7.48;100.00
59789;BME280;47353;51.614;5.530;2023-02-22T09:48:17;101134.00;;;8.32;100.00
59789;BME280;47353;51.614;5.530;2023-02-22T09:50:44;101131.75;;;8.73;100.00
59789;BME280;47353;51.614;5.530;2023-02-22T09:56:07;101125.00;;;9.38;97.75
59789;BME280;47353;51.614;5.530;2023-02-22T09:58:46;101128.31;;;9.67;95.29
59789;BME280;47353;51.614;5.530;2023-02-22T10:01:21;101119.00;;;9.83;92.64
59789;BME280;47353;51.614;5.530;2023-02-22T10:07:16;101116.72;;;10.53;88.88
59789;BME280;47353;51.614;5.530;2023-02-22T10:09:44;101121.19;;;10.69;84.33
59789;BME280;47353;51.614;5.530;2023-02-22T10:12:16;101119.09;;;10.96;85.71
59789;BME280;47353;51.614;5.530;2023-02-22T10:18:01;101115.31;;;11.83;81.52
59789;BME280;47353;51.614;5.530;2023-02-22T10:23:26;101110.09;;;12.65;76.25
59789;BME280;47353;51.614;5.530;2023-02-22T10:26:01;101107.16;;;13.05;75.54
59789;BME280;47353;51.614;5.530;2023-02-22T10:28:35;101112.56;;;13.30;72.15
59789;BME280;47353;51.614;5.530;2023-02-22T10:31:06;101110.59;;;13.35;69.02
59789;BME280;47353;51.614;5.530;2023-02-22T10:33:36;101112.97;;;13.52;69.48
59789;BME280;47353;51.614;5.530;2023-02-22T10:36:04;101115.56;;;13.77;68.27
59789;BME280;47353;51.614;5.530;2023-02-22T10:38:33;101110.38;;;14.23;67.03
59789;BME280;47353;51.614;5.530;2023-02-22T10:41:19;101105.09;;;14.92;66.75
59789;BME280;47353;51.614;5.530;2023-02-22T10:43:48;101102.19;;;14.60;63.12
59789;BME280;47353;51.614;5.530;2023-02-22T10:46:17;101111.84;;;14.44;63.34
59789;BME280;47353;51.614;5.530;2023-02-22T10:48:49;101102.13;;;14.41;62.43
59789;BME280;47353;51.614;5.530;2023-02-22T10:51:15;101104.41;;;14.34;61.61
59789;BME280;47353;51.614;5.530;2023-02-22T10:53:41;101117.53;;;14.34;62.96
59789;BME280;47353;51.614;5.530;2023-02-22T10:56:17;101114.19;;;14.32;63.39
59789;BME280;47353;51.614;5.530;2023-02-22T10:58:54;101110.63;;;13.98;62.43
59789;BME280;47353;51.614;5.530;2023-02-22T11:04:03;101106.84;;;14.41;61.54
59789;BME280;47353;51.614;5.530;2023-02-22T11:06:31;101102.28;;;14.73;60.21
59789;BME280;47353;51.614;5.530;2023-02-22T11:11:38;101107.78;;;14.78;57.50
59789;BME280;47353;51.614;5.530;2023-02-22T11:14:04;101113.31;;;14.08;59.08
59789;BME280;47353;51.614;5.530;2023-02-22T11:16:42;101113.03;;;14.09;61.24
59789;BME280;47353;51.614;5.530;2023-02-22T11:21:39;101107.31;;;15.32;56.75
59789;BME280;47353;51.614;5.530;2023-02-22T11:24:08;101105.75;;;15.45;56.88
59789;BME280;47353;51.614;5.530;2023-02-22T11:26:45;101106.28;;;15.47;56.44
59789;BME280;47353;51.614;5.530;2023-02-22T11:29:30;101098.88;;;15.74;57.27
59789;BME280;47353;51.614;5.530;2023-02-22T11:31:57;101098.81;;;15.24;53.77
59789;BME280;47353;51.614;5.530;2023-02-22T11:34:36;101102.16;;;14.83;56.65
59789;BME280;47353;51.614;5.530;2023-02-22T11:40:04;101085.69;;;13.88;60.81
59789;BME280;47353;51.614;5.530;2023-02-22T11:42:30;101078.00;;;13.75;60.51
59789;BME280;47353;51.614;5.530;2023-02-22T11:45:19;101076.88;;;13.76;61.12
59789;BME280;47353;51.614;5.530;2023-02-22T11:47:56;101078.50;;;13.82;60.97
59789;BME280;47353;51.614;5.530;2023-02-22T11:53:42;101057.75;;;14.68;59.64
59789;BME280;47353;51.614;5.530;2023-02-22T11:56:26;101053.34;;;14.44;58.14
59789;BME280;47353;51.614;5.530;2023-02-22T12:01:37;101048.19;;;13.80;59.18
59789;BME280;47353;51.614;5.530;2023-02-22T12:04:30;101047.03;;;13.53;60.69
59789;BME280;47353;51.614;5.530;2023-02-22T12:13:21;101034.72;;;13.30;63.06
59789;BME280;47353;51.614;5.530;2023-02-22T12:21:18;101024.72;;;12.90;64.51
59789;BME280;47353;51.614;5.530;2023-02-22T12:26:32;101035.41;;;11.95;66.18
59789;BME280;47353;51.614;5.530;2023-02-22T12:31:55;101028.22;;;11.84;68.66
59789;BME280;47353;51.614;5.530;2023-02-22T12:34:30;101031.84;;;11.79;69.88
59789;BME280;47353;51.614;5.530;2023-02-22T12:37:09;101023.78;;;11.88;69.39
59789;BME280;47353;51.614;5.530;2023-02-22T12:42:18;101015.19;;;11.84;69.56
59789;BME280;47353;51.614;5.530;2023-02-22T12:44:52;101005.75;;;11.95;68.64
59789;BME280;47353;51.614;5.530;2023-02-22T12:47:23;101017.91;;;12.04;69.38
59789;BME280;47353;51.614;5.530;2023-02-22T12:50:03;101019.94;;;11.73;70.63
59789;BME280;47353;51.614;5.530;2023-02-22T12:52:46;101027.13;;;11.59;72.06
59789;BME280;47353;51.614;5.530;2023-02-22T12:55:32;101025.22;;;11.55;71.84
59789;BME280;47353;51.614;5.530;2023-02-22T13:00:55;101024.94;;;11.51;73.40
59789;BME280;47353;51.614;5.530;2023-02-22T13:03:33;101034.88;;;11.47;75.83
59789;BME280;47353;51.614;5.530;2023-02-22T13:06:35;101036.84;;;11.42;77.32
59789;BME280;47353;51.614;5.530;2023-02-22T13:23:09;101033.78;;;10.93;81.56
59789;BME280;47353;51.614;5.530;2023-02-22T13:25:43;101033.50;;;10.90;82.38
59789;BME280;47353;51.614;5.530;2023-02-22T13:34:28;101025.75;;;11.02;83.38
59789;BME280;47353;51.614;5.530;2023-02-22T13:54:23;101022.69;;;10.93;83.78
59789;BME280;47353;51.614;5.530;2023-02-22T13:56:51;101026.00;;;10.80;84.49
59789;BME280;47353;51.614;5.530;2023-02-22T14:01:51;101007.66;;;10.64;85.23
59789;BME280;47353;51.614;5.530;2023-02-22T14:06:59;101019.31;;;10.66;85.27
59789;BME280;47353;51.614;5.530;2023-02-22T14:17:34;101021.78;;;10.58;86.14
59789;BME280;47353;51.614;5.530;2023-02-22T14:20:02;101020.09;;;10.57;86.57
59789;BME280;47353;51.614;5.530;2023-02-22T14:22:28;101022.06;;;10.61;87.67
59789;BME280;47353;51.614;5.530;2023-02-22T14:24:56;101021.78;;;10.58;86.87
59789;BME280;47353;51.614;5.530;2023-02-22T14:27:21;101033.69;;;10.63;86.62
59789;BME280;47353;51.614;5.530;2023-02-22T14:29:55;101032.03;;;10.62;87.48
59789;BME280;47353;51.614;5.530;2023-02-22T14:32:30;101038.38;;;10.53;87.15
59789;BME280;47353;51.614;5.530;2023-02-22T14:34:58;101022.84;;;10.42;87.84
59789;BME280;47353;51.614;5.530;2023-02-22T14:37:48;101028.13;;;10.48;88.14
59789;BME280;47353;51.614;5.530;2023-02-22T14:40:18;101031.44;;;10.45;87.50
59789;BME280;47353;51.614;5.530;2023-02-22T14:43:03;101038.31;;;10.43;87.49
59789;BME280;47353;51.614;5.530;2023-02-22T14:45:32;101038.06;;;10.39;88.19
59789;BME280;47353;51.614;5.530;2023-02-22T14:48:19;101033.34;;;10.45;88.83
59789;BME280;47353;51.614;5.530;2023-02-22T14:50:58;101035.00;;;10.46;89.04
59789;BME280;47353;51.614;5.530;2023-02-22T14:53:42;101033.91;;;10.42;88.85
59789;BME280;47353;51.614;5.530;2023-02-22T14:58:42;101034.97;;;10.31;89.18
59789;BME280;47353;51.614;5.530;2023-02-22T15:01:29;101033.91;;;10.42;89.04
59789;BME280;47353;51.614;5.530;2023-02-22T15:04:15;101041.63;;;10.40;88.25
59789;BME280;47353;51.614;5.530;2023-02-22T15:06:40;101033.91;;;10.42;88.45
59789;BME280;47353;51.614;5.530;2023-02-22T15:09:26;101032.50;;;10.44;88.10
59789;BME280;47353;51.614;5.530;2023-02-22T15:11:56;101043.59;;;10.44;88.52
59789;BME280;47353;51.614;5.530;2023-02-22T15:14:36;101050.53;;;10.47;88.50
59789;BME280;47353;51.614;5.530;2023-02-22T15:17:08;101048.84;;;10.46;88.56
59789;BME280;47353;51.614;5.530;2023-02-22T15:19:39;101054.09;;;10.37;88.58
59789;BME280;47353;51.614;5.530;2023-02-22T15:22:18;101046.34;;;10.34;88.98